Terminal Aerodrome Forecast
Issued by NWS

Home | Current Version | Previous Version | Text Only | Print | Product List | Glossary On
Versions: 1 2 3 4 5 6 7 8 9 10 11 12 13 14 15 16 17
000
FTUS45 KABQ 311700 RRA
TAFFMN
TAF
KFMN 311744Z 3118/0118 VRB03KT P6SM SCT005 OVC025
     FM312000 28009KT P6SM BKN035
     FM010200 29006KT P6SM FEW040
     FM010700 VRB04KT P6SM SCT005 SCT050
      TEMPO 0108/0112 1SM BR BKN003=

USA.gov is the U.S. government's official web portal to all federal, state and local government web resources and services.